Kostelni Myslova, Czech Republic
Current Conditions -  °F | °C
As of 9:00 AM on Sunday 26 Oct 2014 (Local Time) from LKNA Reporting Station
Haze Haze  
Wind Chill: 41°   Ceiling: 900
Heat Index: 41°   Visibility: 1.2mi
Dew Point: 41°   Wind: 0mph
Humidity: 100%   Direction: NA
Pressure: 30.36"   Gusts: NA
Location:  49.15°N, 15.43°E
Report Text: LKNA 260700Z 00000KT 2000 BR SCT003 OVC009 05/05 Q1028 NOSIG
Loading
Personal Weather Stations






























Interactive Weather Map
Tropical Storm Tracking
New forecast layout! Learn more

10-Day Weather Forecast

Advertisements
Track Severe Weather on mobile